Time;durP1;ratioP1;P1;durP2;ratioP2;P2;SDS_P1;SDS_P2;PMS_P1;PMS_P2;Temp;Humidity;BMP_temperature;BMP_pressure;BME280_temperature;BME280_humidity;BME280_pressure;Samples;Min_cycle;Max_cycle;Signal;HPM_P1;HPM_P2
2022/10/29 00:02:25;;;;;;;39.85;12.68;;;;;;;;;;5093400;28;20098;-68
2022/10/29 00:04:51;;;;;;;37.90;11.95;;;;;;;;;;5093467;28;20047;-67
2022/10/29 00:07:17;;;;;;;32.60;12.43;;;;;;;;;;5093486;28;20044;-67
2022/10/29 00:09:43;;;;;;;28.73;11.40;;;;;;;;;;5093460;28;20083;-68
2022/10/29 00:12:09;;;;;;;38.72;11.98;;;;;;;;;;5093389;28;20059;-67
2022/10/29 00:14:35;;;;;;;42.13;13.18;;;;;;;;;;5093396;28;20051;-67
2022/10/29 00:17:01;;;;;;;42.58;12.20;;;;;;;;;;5093596;28;20430;-67
2022/10/29 00:19:27;;;;;;;37.33;13.43;;;;;;;;;;5093330;28;20130;-67
2022/10/29 00:21:53;;;;;;;35.10;13.18;;;;;;;;;;5092006;28;20044;-67
2022/10/29 00:24:19;;;;;;;38.13;12.40;;;;;;;;;;5093353;28;20044;-68
2022/10/29 00:26:45;;;;;;;31.38;11.38;;;;;;;;;;5093282;28;20047;-68
2022/10/29 00:29:11;;;;;;;41.55;12.90;;;;;;;;;;5093577;28;20127;-68
2022/10/29 00:31:37;;;;;;;34.83;11.35;;;;;;;;;;5093066;28;20041;-67
2022/10/29 00:34:03;;;;;;;36.05;12.07;;;;;;;;;;5093344;28;20048;-67
2022/10/29 00:36:30;;;;;;;34.60;12.05;;;;;;;;;;5093042;28;20043;-68
2022/10/29 00:38:55;;;;;;;;;;;;;;;;;;5094106;28;20547;-67
2022/10/29 00:41:25;;;;;;;40.45;12.95;;;;;;;;;;5092950;28;19960;-68
2022/10/29 00:44:09;;;;;;;43.03;13.35;;;;;;;;;;5093983;28;20051;-68
2022/10/29 00:46:36;;;;;;;44.97;15.05;;;;;;;;;;5093040;28;20123;-68
2022/10/29 00:49:02;;;;;;;;;;;;;;;;;;5094193;28;20044;-67
2022/10/29 00:51:29;;;;;;;40.83;14.10;;;;;;;;;;5092960;28;19943;-67
2022/10/29 00:53:59;;;;;;;44.10;14.20;;;;;;;;;;5094607;28;20066;-67
2022/10/29 00:56:26;;;;;;;43.67;14.25;;;;;;;;;;5094065;28;20040;-68
2022/10/29 00:58:52;;;;;;;49.50;14.43;;;;;;;;;;5093015;28;20055;-68
2022/10/29 01:01:18;;;;;;;40.28;12.35;;;;;;;;;;5092870;28;20044;-68
2022/10/29 01:03:44;;;;;;;39.67;12.95;;;;;;;;;;5092943;28;20048;-67
2022/10/29 01:06:10;;;;;;;;;;;;;;;;;;5092096;28;20040;-68
2022/10/29 01:08:36;;;;;;;35.65;14.45;;;;;;;;;;5091631;28;19970;-67
2022/10/29 01:11:02;;;;;;;44.85;15.30;;;;;;;;;;5094647;28;20052;-68
2022/10/29 01:13:40;;;;;;;49.85;16.40;;;;;;;;;;5096796;28;20058;-68
2022/10/29 01:16:24;;;;;;;52.78;16.42;;;;;;;;;;5096460;28;20079;-68
2022/10/29 01:19:09;;;;;;;83.15;18.20;;;;;;;;;;5096916;28;20043;-68
2022/10/29 01:21:45;;;;;;;38.47;14.63;;;;;;;;;;5096281;28;20131;-68
2022/10/29 01:24:24;;;;;;;38.25;15.15;;;;;;;;;;5097091;28;20103;-68
2022/10/29 01:27:02;;;;;;;103.55;19.00;;;;;;;;;;5096256;28;20128;-68
2022/10/29 01:29:46;;;;;;;41.75;15.50;;;;;;;;;;5096045;28;20056;-68
2022/10/29 01:32:14;;;;;;;50.00;16.02;;;;;;;;;;5096124;28;20123;-69
2022/10/29 01:34:40;;;;;;;72.55;18.15;;;;;;;;;;5129023;27;20131;-68
2022/10/29 01:37:11;;;;;;;70.07;17.95;;;;;;;;;;5095765;28;20194;-68
2022/10/29 01:39:41;;;;;;;35.45;16.05;;;;;;;;;;5129136;27;20551;-68
2022/10/29 01:42:07;;;;;;;52.45;16.40;;;;;;;;;;5096503;28;20039;-68
2022/10/29 01:44:37;;;;;;;51.45;18.38;;;;;;;;;;5094560;28;20082;-68
2022/10/29 01:47:04;;;;;;;59.88;17.42;;;;;;;;;;5095955;28;20055;-68
2022/10/29 01:49:41;;;;;;;45.40;17.30;;;;;;;;;;5094512;28;20044;-68
2022/10/29 01:52:09;;;;;;;61.22;17.67;;;;;;;;;;5096652;28;20109;-68
2022/10/29 01:54:38;;;;;;;40.10;16.65;;;;;;;;;;5095583;28;20075;-68
2022/10/29 01:57:24;;;;;;;39.67;16.77;;;;;;;;;;5095637;28;20055;-68
2022/10/29 01:59:51;;;;;;;45.25;17.55;;;;;;;;;;5095831;28;20036;-68
2022/10/29 02:02:36;;;;;;;58.67;17.80;;;;;;;;;;5095593;28;20055;-68
2022/10/29 02:05:34;;;;;;;131.50;18.75;;;;;;;;;;5096023;28;20392;-68
2022/10/29 02:08:00;;;;;;;61.60;17.70;;;;;;;;;;5072417;28;20044;-68
2022/10/29 02:10:26;;;;;;;94.47;17.77;;;;;;;;;;5095309;28;20051;-69
2022/10/29 02:12:53;;;;;;;46.13;16.75;;;;;;;;;;5095436;28;20048;-68
2022/10/29 02:15:19;;;;;;;90.43;18.42;;;;;;;;;;5095512;28;20048;-69
2022/10/29 02:17:45;;;;;;;151.18;19.75;;;;;;;;;;5095399;28;20109;-68
2022/10/29 02:20:13;;;;;;;84.18;17.63;;;;;;;;;;5095254;28;20105;-69
2022/10/29 02:22:39;;;;;;;96.13;17.38;;;;;;;;;;5094618;28;20052;-69
2022/10/29 02:25:06;;;;;;;82.90;15.90;;;;;;;;;;5095096;28;20097;-68
2022/10/29 02:27:33;;;;;;;170.90;20.13;;;;;;;;;;5095522;28;20059;-69
2022/10/29 02:29:59;;;;;;;48.85;14.98;;;;;;;;;;5095489;28;20048;-69
2022/10/29 02:32:25;;;;;;;53.78;14.07;;;;;;;;;;5095004;28;20052;-69
2022/10/29 02:34:51;;;;;;;67.50;18.02;;;;;;;;;;5093855;28;20054;-68
2022/10/29 02:37:17;;;;;;;191.20;20.92;;;;;;;;;;5095346;28;20048;-69
2022/10/29 02:39:43;;;;;;;61.58;15.82;;;;;;;;;;5094845;28;20526;-69
2022/10/29 02:42:09;;;;;;;111.53;17.77;;;;;;;;;;5095386;28;20365;-70
2022/10/29 02:44:35;;;;;;;;;;;;;;;;;;5099819;28;20044;-69
2022/10/29 02:47:01;;;;;;;225.70;21.88;;;;;;;;;;5099913;28;19942;-69
2022/10/29 02:49:28;;;;;;;83.95;17.45;;;;;;;;;;5096200;28;20048;-70
2022/10/29 02:51:54;;;;;;;;;;;;;;;;;;5094710;28;20048;-69
2022/10/29 02:54:20;;;;;;;45.30;13.63;;;;;;;;;;5094579;28;20348;-70
2022/10/29 02:56:46;;;;;;;185.80;20.42;;;;;;;;;;5093243;28;20036;-69
2022/10/29 02:59:12;;;;;;;178.20;18.95;;;;;;;;;;5094590;28;20052;-69
2022/10/29 03:01:38;;;;;;;80.90;15.07;;;;;;;;;;5094779;28;20094;-69
2022/10/29 03:04:04;;;;;;;140.52;19.23;;;;;;;;;;5095132;28;20044;-69
2022/10/29 03:06:30;;;;;;;111.43;15.70;;;;;;;;;;5093094;28;20051;-69
2022/10/29 03:08:56;;;;;;;180.63;18.13;;;;;;;;;;5094553;28;20055;-69
2022/10/29 03:11:22;;;;;;;78.30;15.23;;;;;;;;;;5094215;28;20133;-69
2022/10/29 03:13:48;;;;;;;74.97;13.93;;;;;;;;;;5094145;28;20047;-69
2022/10/29 03:16:14;;;;;;;60.08;13.57;;;;;;;;;;5094113;28;20040;-69
2022/10/29 03:18:40;;;;;;;53.13;15.32;;;;;;;;;;5094121;28;20054;-70
2022/10/29 03:21:06;;;;;;;99.57;17.08;;;;;;;;;;5094054;28;20083;-69
2022/10/29 03:23:32;;;;;;;119.75;18.00;;;;;;;;;;5094047;28;20043;-69
2022/10/29 03:25:58;;;;;;;147.95;18.10;;;;;;;;;;5093999;28;20050;-69
2022/10/29 03:28:26;;;;;;;90.78;16.25;;;;;;;;;;5094516;28;20047;-68
2022/10/29 03:30:52;;;;;;;83.22;16.35;;;;;;;;;;5092593;28;20045;-69
2022/10/29 03:33:18;;;;;;;249.85;20.58;;;;;;;;;;5093222;28;20040;-68
2022/10/29 03:35:44;;;;;;;177.90;18.63;;;;;;;;;;5092837;28;20044;-69
2022/10/29 03:38:10;;;;;;;129.40;15.30;;;;;;;;;;5093461;28;20404;-68
2022/10/29 03:40:36;;;;;;;202.75;19.48;;;;;;;;;;5093789;28;20048;-69
2022/10/29 03:43:03;;;;;;;29.55;11.60;;;;;;;;;;5093897;28;20055;-68
2022/10/29 03:45:29;;;;;;;83.90;13.85;;;;;;;;;;5094300;28;20044;-69
2022/10/29 03:47:56;;;;;;;41.38;11.98;;;;;;;;;;5093586;28;20174;-70
2022/10/29 03:50:22;;;;;;;84.80;14.90;;;;;;;;;;5093949;28;20484;-68
2022/10/29 03:52:48;;;;;;;39.58;11.48;;;;;;;;;;5092820;28;20040;-68
2022/10/29 03:55:14;;;;;;;98.90;14.80;;;;;;;;;;5093234;28;20480;-67
2022/10/29 03:57:40;;;;;;;81.72;13.30;;;;;;;;;;5093135;28;20063;-70
2022/10/29 04:00:06;;;;;;;85.72;14.52;;;;;;;;;;5093379;28;20052;-67
2022/10/29 04:02:32;;;;;;;77.13;13.00;;;;;;;;;;5093508;28;20051;-67
2022/10/29 04:04:58;;;;;;;57.20;12.43;;;;;;;;;;5094055;28;20051;-69
2022/10/29 04:07:24;;;;;;;41.38;11.68;;;;;;;;;;5092664;28;20044;-68
2022/10/29 04:09:50;;;;;;;42.03;11.15;;;;;;;;;;5092243;28;20139;-67
2022/10/29 04:12:16;;;;;;;70.68;13.15;;;;;;;;;;5093489;28;20048;-68
2022/10/29 04:14:44;;;;;;;43.88;11.63;;;;;;;;;;5093372;28;20044;-69
2022/10/29 04:17:11;;;;;;;79.03;13.75;;;;;;;;;;5093424;28;20063;-69
2022/10/29 04:19:37;;;;;;;66.55;12.82;;;;;;;;;;5093388;28;20498;-69
2022/10/29 04:22:03;;;;;;;109.88;14.73;;;;;;;;;;5093314;28;20472;-68
2022/10/29 04:24:29;;;;;;;94.82;14.43;;;;;;;;;;5092837;28;20477;-68
2022/10/29 04:26:55;;;;;;;63.63;13.88;;;;;;;;;;5094134;28;20063;-69
2022/10/29 04:29:21;;;;;;;82.53;13.70;;;;;;;;;;5094045;28;20067;-73
2022/10/29 04:31:47;;;;;;;75.72;13.02;;;;;;;;;;5093176;28;20123;-68
2022/10/29 04:34:13;;;;;;;53.85;11.65;;;;;;;;;;5093449;28;20059;-67
2022/10/29 04:36:39;;;;;;;63.25;12.93;;;;;;;;;;5092973;28;20492;-68
2022/10/29 04:39:06;;;;;;;53.65;11.85;;;;;;;;;;5094154;28;20452;-67
2022/10/29 04:41:33;;;;;;;88.78;13.85;;;;;;;;;;5092823;28;20109;-67
2022/10/29 04:44:00;;;;;;;58.78;13.15;;;;;;;;;;5093195;28;20083;-67
2022/10/29 04:46:26;;;;;;;;;;;;;;;;;;5097712;28;20040;-67
2022/10/29 04:48:52;;;;;;;71.28;13.32;;;;;;;;;;5096911;28;20421;-67
2022/10/29 04:51:22;;;;;;;31.35;12.13;;;;;;;;;;5095874;28;20039;-67
2022/10/29 04:53:48;;;;;;;35.78;11.80;;;;;;;;;;5096675;28;20090;-67
2022/10/29 04:56:14;;;;;;;;;;;;;;;;;;5097192;28;20047;-67
2022/10/29 04:58:40;;;;;;;117.18;14.93;;;;;;;;;;5097023;28;20257;-66
2022/10/29 05:01:06;;;;;;;74.47;12.90;;;;;;;;;;5096762;28;20055;-67
2022/10/29 05:03:33;;;;;;;58.22;13.57;;;;;;;;;;5097111;28;20384;-68
2022/10/29 05:06:01;;;;;;;107.65;15.45;;;;;;;;;;5097145;28;20085;-67
2022/10/29 05:08:27;;;;;;;86.93;13.68;;;;;;;;;;5096633;28;20043;-67
2022/10/29 05:10:53;;;;;;;100.35;15.50;;;;;;;;;;5095205;28;20408;-67
2022/10/29 05:13:20;;;;;;;88.43;15.20;;;;;;;;;;5097359;28;20131;-67
2022/10/29 05:15:49;;;;;;;209.43;21.42;;;;;;;;;;5096363;28;20046;-66
2022/10/29 05:18:15;;;;;;;122.50;17.23;;;;;;;;;;5095319;28;20048;-67
2022/10/29 05:20:41;;;;;;;95.00;16.75;;;;;;;;;;5096379;28;20044;-67
2022/10/29 05:23:09;;;;;;;216.30;19.65;;;;;;;;;;5096180;28;20084;-67
2022/10/29 05:25:36;;;;;;;82.28;13.93;;;;;;;;;;5096784;28;20044;-67
2022/10/29 05:28:03;;;;;;;75.25;14.65;;;;;;;;;;5096212;28;20044;-67
2022/10/29 05:30:29;;;;;;;74.10;14.40;;;;;;;;;;5096966;28;20377;-68
2022/10/29 05:32:55;;;;;;;96.45;15.23;;;;;;;;;;5096688;28;20097;-67
2022/10/29 05:35:21;;;;;;;82.95;14.45;;;;;;;;;;5095987;28;20119;-66
2022/10/29 05:37:54;;;;;;;104.38;15.68;;;;;;;;;;5094826;28;20060;-66
2022/10/29 05:40:20;;;;;;;107.78;16.90;;;;;;;;;;5095565;28;20522;-67
2022/10/29 05:42:46;;;;;;;85.50;15.68;;;;;;;;;;5095896;28;20044;-66
2022/10/29 05:45:13;;;;;;;70.78;15.10;;;;;;;;;;5095834;28;20047;-67
2022/10/29 05:47:39;;;;;;;50.58;14.25;;;;;;;;;;5095914;28;20105;-66
2022/10/29 05:50:05;;;;;;;70.47;14.40;;;;;;;;;;5096182;28;20051;-67
2022/10/29 05:52:31;;;;;;;54.05;13.93;;;;;;;;;;5095687;28;20093;-67
2022/10/29 05:54:57;;;;;;;40.15;13.00;;;;;;;;;;5096407;28;20048;-66
2022/10/29 05:57:23;;;;;;;34.85;12.27;;;;;;;;;;5094772;28;20483;-66
2022/10/29 05:59:49;;;;;;;31.60;11.23;;;;;;;;;;5096229;28;20439;-66
2022/10/29 06:02:15;;;;;;;57.58;12.93;;;;;;;;;;5095604;28;20048;-66
2022/10/29 06:04:41;;;;;;;22.42;9.57;;;;;;;;;;5096310;28;20044;-66
2022/10/29 06:07:07;;;;;;;52.80;11.90;;;;;;;;;;5095373;28;20077;-65
2022/10/29 06:09:33;;;;;;;52.20;12.45;;;;;;;;;;5095516;28;20445;-66
2022/10/29 06:11:59;;;;;;;33.38;12.40;;;;;;;;;;5095380;28;20479;-66
2022/10/29 06:14:25;;;;;;;27.73;12.10;;;;;;;;;;5095266;28;20052;-66
2022/10/29 06:16:51;;;;;;;48.28;13.52;;;;;;;;;;5094943;28;20082;-65
2022/10/29 06:19:17;;;;;;;36.33;12.25;;;;;;;;;;5095655;28;20052;-66
2022/10/29 06:21:43;;;;;;;35.97;13.48;;;;;;;;;;5095192;28;20047;-66
2022/10/29 06:24:09;;;;;;;35.08;13.75;;;;;;;;;;5095075;28;20048;-67
2022/10/29 06:26:39;;;;;;;32.20;13.75;;;;;;;;;;5094841;28;20040;-66
2022/10/29 06:29:05;;;;;;;67.45;14.90;;;;;;;;;;5094163;28;20044;-66
2022/10/29 06:31:31;;;;;;;80.35;17.38;;;;;;;;;;5094482;28;20106;-66
2022/10/29 06:33:57;;;;;;;36.05;13.23;;;;;;;;;;5094178;28;20537;-66
2022/10/29 06:36:23;;;;;;;44.92;15.38;;;;;;;;;;5093848;28;20047;-67
2022/10/29 06:38:50;;;;;;;68.05;15.98;;;;;;;;;;5094069;28;20056;-66
2022/10/29 06:41:16;;;;;;;;;;;;;;;;;;5094434;28;20059;-66
2022/10/29 06:43:42;;;;;;;49.65;15.70;;;;;;;;;;5093528;28;19920;-66
2022/10/29 06:46:08;;;;;;;103.65;17.85;;;;;;;;;;5093164;28;20164;-67
2022/10/29 06:48:34;;;;;;;41.25;15.43;;;;;;;;;;5093196;28;20040;-65
2022/10/29 06:51:00;;;;;;;75.32;16.67;;;;;;;;;;5092759;28;20557;-67
2022/10/29 06:53:27;;;;;;;45.97;13.98;;;;;;;;;;5093189;28;20480;-67
2022/10/29 06:55:53;;;;;;;;;;;;;;;;;;5093946;28;20036;-68
2022/10/29 06:58:20;;;;;;;65.07;13.90;;;;;;;;;;5093020;28;19972;-66
2022/10/29 07:00:46;;;;;;;68.25;14.38;;;;;;;;;;5093591;28;20044;-66
2022/10/29 07:03:13;;;;;;;32.90;12.23;;;;;;;;;;5092850;28;20055;-66
2022/10/29 07:05:40;;;;;;;45.17;13.43;;;;;;;;;;5093274;28;20441;-66
2022/10/29 07:08:06;;;;;;;88.40;14.77;;;;;;;;;;5092653;28;20051;-67
2022/10/29 07:10:32;;;;;;;66.05;14.07;;;;;;;;;;5093315;28;20044;-66
2022/10/29 07:12:59;;;;;;;84.68;16.13;;;;;;;;;;5092824;28;20048;-66
2022/10/29 07:15:25;;;;;;;;;;;;;;;;;;5093249;28;20491;-66
2022/10/29 07:18:09;;;;;;;46.22;15.00;;;;;;;;;;5092161;28;19920;-66
2022/10/29 07:20:38;;;;;;;51.67;15.00;;;;;;;;;;5093168;28;20051;-67
2022/10/29 07:23:04;;;;;;;56.78;14.48;;;;;;;;;;5092808;28;20044;-68
2022/10/29 07:25:31;;;;;;;79.57;16.30;;;;;;;;;;5092908;28;20461;-67
2022/10/29 07:28:08;;;;;;;101.35;18.35;;;;;;;;;;5092215;28;20516;-66
2022/10/29 07:30:33;;;;;;;;;;;;;;;;;;5092972;28;20506;-67
2022/10/29 07:33:00;;;;;;;59.30;16.95;;;;;;;;;;5092498;28;19924;-66
2022/10/29 07:35:26;;;;;;;46.63;14.90;;;;;;;;;;5093104;28;20047;-67
2022/10/29 07:37:57;;;;;;;70.55;17.98;;;;;;;;;;5092414;28;20402;-67
2022/10/29 07:40:23;;;;;;;53.30;16.35;;;;;;;;;;5092735;28;20048;-66
2022/10/29 07:42:52;;;;;;;76.65;19.50;;;;;;;;;;5092266;28;20051;-67
2022/10/29 07:45:18;;;;;;;134.80;22.52;;;;;;;;;;5092036;28;20476;-67
2022/10/29 07:47:45;;;;;;;53.03;18.45;;;;;;;;;;5093014;28;20071;-67
2022/10/29 07:50:11;;;;;;;65.50;19.23;;;;;;;;;;5092346;28;20434;-67
2022/10/29 07:52:38;;;;;;;80.65;19.20;;;;;;;;;;5092275;28;20102;-67
2022/10/29 07:55:04;;;;;;;124.60;24.35;;;;;;;;;;5092353;28;20094;-67
2022/10/29 07:57:30;;;;;;;86.30;22.48;;;;;;;;;;5092129;28;20056;-66
2022/10/29 07:59:56;;;;;;;96.78;23.67;;;;;;;;;;5092918;28;20040;-66
2022/10/29 08:02:22;;;;;;;105.45;23.90;;;;;;;;;;5092662;28;20368;-67
2022/10/29 08:04:48;;;;;;;72.15;20.83;;;;;;;;;;5074303;28;20101;-66
2022/10/29 08:07:14;;;;;;;91.78;22.38;;;;;;;;;;5092027;28;20044;-67
2022/10/29 08:09:40;;;;;;;92.30;21.58;;;;;;;;;;5092128;28;20131;-66
2022/10/29 08:12:10;;;;;;;83.75;23.35;;;;;;;;;;5092058;28;20044;-67
2022/10/29 08:14:36;;;;;;;72.30;21.58;;;;;;;;;;5092092;28;20080;-67
2022/10/29 08:17:02;;;;;;;76.57;22.65;;;;;;;;;;5090865;28;20047;-67
2022/10/29 08:19:28;;;;;;;81.82;22.40;;;;;;;;;;5092884;28;20483;-67
2022/10/29 08:21:55;;;;;;;65.68;21.60;;;;;;;;;;5096537;28;20051;-67
2022/10/29 08:24:21;;;;;;;68.47;21.77;;;;;;;;;;5096246;28;20407;-68
2022/10/29 08:26:49;;;;;;;87.40;24.48;;;;;;;;;;5097079;28;20040;-68
2022/10/29 08:29:15;;;;;;;74.55;24.17;;;;;;;;;;5096300;28;20109;-68
2022/10/29 08:31:41;;;;;;;82.85;26.40;;;;;;;;;;5096093;28;20499;-68
2022/10/29 08:34:07;;;;;;;91.95;28.42;;;;;;;;;;5094933;28;20488;-67
2022/10/29 08:36:33;;;;;;;94.68;32.60;;;;;;;;;;5095593;28;20040;-65
2022/10/29 08:38:59;;;;;;;88.55;32.40;;;;;;;;;;5095552;28;20064;-66
2022/10/29 08:41:38;;;;;;;83.88;32.88;;;;;;;;;;5095656;28;20044;-66
2022/10/29 08:44:04;;;;;;;94.53;33.38;;;;;;;;;;5096361;28;20044;-67
2022/10/29 08:46:30;;;;;;;82.80;32.50;;;;;;;;;;5096136;28;20055;-67
2022/10/29 08:48:57;;;;;;;107.53;35.20;;;;;;;;;;5094635;28;20048;-66
2022/10/29 08:51:23;;;;;;;102.70;36.70;;;;;;;;;;5096028;28;20059;-67
2022/10/29 08:53:51;;;;;;;98.80;36.58;;;;;;;;;;5095639;28;20426;-67
2022/10/29 08:56:37;;;;;;;104.10;39.05;;;;;;;;;;5095515;28;20475;-67
2022/10/29 08:59:11;;;;;;;103.03;39.47;;;;;;;;;;5093860;28;20057;-67
2022/10/29 09:01:37;;;;;;;100.55;39.78;;;;;;;;;;5094416;28;20048;-67
2022/10/29 09:04:10;;;;;;;103.03;38.90;;;;;;;;;;5094780;28;20062;-67
2022/10/29 09:07:05;;;;;;;92.53;38.03;;;;;;;;;;5095222;28;20181;-67
2022/10/29 09:09:38;;;;;;;88.10;38.35;;;;;;;;;;5058227;28;20084;-67
2022/10/29 09:12:04;;;;;;;102.90;38.75;;;;;;;;;;5095802;28;20052;-67
2022/10/29 09:14:33;;;;;;;91.20;37.65;;;;;;;;;;5095065;28;20087;-67
2022/10/29 09:16:59;;;;;;;91.03;39.55;;;;;;;;;;5093752;28;20396;-67
2022/10/29 09:19:28;;;;;;;98.95;39.17;;;;;;;;;;5094928;28;20044;-66
2022/10/29 09:22:00;;;;;;;99.32;40.35;;;;;;;;;;5095549;28;20124;-67
2022/10/29 09:24:45;;;;;;;94.65;38.95;;;;;;;;;;5094756;28;20137;-67
2022/10/29 09:27:15;;;;;;;91.95;39.35;;;;;;;;;;5093499;28;20051;-67
2022/10/29 09:29:45;;;;;;;87.90;39.63;;;;;;;;;;5093387;28;20048;-67
2022/10/29 09:32:15;;;;;;;90.22;39.75;;;;;;;;;;5093139;28;20401;-67
2022/10/29 09:34:48;;;;;;;86.63;38.67;;;;;;;;;;5094596;28;20044;-67
2022/10/29 09:37:16;;;;;;;76.28;37.58;;;;;;;;;;5094318;28;20048;-67
2022/10/29 09:39:44;;;;;;;94.93;39.97;;;;;;;;;;5094589;28;20091;-67
2022/10/29 09:42:11;;;;;;;83.15;38.65;;;;;;;;;;5094464;28;20480;-67
2022/10/29 09:44:39;;;;;;;79.28;37.28;;;;;;;;;;5094639;28;20087;-67
2022/10/29 09:47:16;;;;;;;86.13;38.67;;;;;;;;;;5094274;28;20076;-68
2022/10/29 09:49:42;;;;;;;82.75;38.33;;;;;;;;;;5094236;28;20067;-68
2022/10/29 09:52:17;;;;;;;98.97;40.03;;;;;;;;;;5095056;28;20066;-68
2022/10/29 09:54:44;;;;;;;99.82;41.22;;;;;;;;;;5094740;28;20127;-68
2022/10/29 09:57:10;;;;;;;;;;;;;;;;;;5094609;28;20472;-68
2022/10/29 09:59:46;;;;;;;80.28;39.08;;;;;;;;;;5094210;28;20061;-69
2022/10/29 10:02:31;;;;;;;92.00;37.53;;;;;;;;;;5094153;28;20484;-69
2022/10/29 10:05:01;;;;;;;80.53;36.72;;;;;;;;;;5094251;28;20143;-68
2022/10/29 10:07:28;;;;;;;70.85;34.38;;;;;;;;;;5094818;28;20052;-67
2022/10/29 10:09:54;;;;;;;70.07;33.45;;;;;;;;;;5094591;28;20059;-68
2022/10/29 10:12:22;;;;;;;66.55;31.73;;;;;;;;;;5094102;28;20496;-68
2022/10/29 10:14:48;;;;;;;67.10;33.63;;;;;;;;;;5093802;28;20504;-69
2022/10/29 10:17:14;;;;;;;65.45;31.63;;;;;;;;;;5094581;28;20043;-69
2022/10/29 10:19:40;;;;;;;;;;;;;;;;;;5094740;28;20070;-69
2022/10/29 10:22:15;;;;;;;59.30;31.35;;;;;;;;;;5093961;28;20015;-68
2022/10/29 10:24:42;;;;;;;61.70;31.08;;;;;;;;;;5096030;28;20051;-69
2022/10/29 10:27:17;;;;;;;59.78;30.90;;;;;;;;;;5099045;28;20036;-69
2022/10/29 10:29:44;;;;;;;68.88;31.08;;;;;;;;;;5093899;28;20131;-69
2022/10/29 10:32:13;;;;;;;61.55;31.45;;;;;;;;;;5093518;28;20047;-71
2022/10/29 10:34:39;;;;;;;64.35;29.73;;;;;;;;;;5093856;28;20409;-70
2022/10/29 10:37:13;;;;;;;52.55;29.60;;;;;;;;;;5094249;28;20043;-70
2022/10/29 10:39:40;;;;;;;60.13;30.17;;;;;;;;;;5092608;28;20499;-71
2022/10/29 10:42:15;;;;;;;58.53;28.77;;;;;;;;;;5093167;28;20052;-70
2022/10/29 10:44:57;;;;;;;48.95;25.80;;;;;;;;;;5093717;28;20040;-71
2022/10/29 10:47:25;;;;;;;49.15;24.42;;;;;;;;;;5093836;28;20063;-70
2022/10/29 10:49:52;;;;;;;51.60;25.15;;;;;;;;;;5093848;28;20048;-73
2022/10/29 10:52:18;;;;;;;;;;;;;;;;;;5093875;28;20377;-74
2022/10/29 10:54:45;;;;;;;48.00;24.33;;;;;;;;;;5093729;28;19920;-74
2022/10/29 10:57:11;;;;;;;45.72;23.25;;;;;;;;;;5093258;28;20040;-74
2022/10/29 10:59:37;;;;;;;46.88;24.25;;;;;;;;;;5093451;28;20426;-75
2022/10/29 11:02:04;;;;;;;43.90;25.33;;;;;;;;;;5093021;28;20062;-74
2022/10/29 11:04:32;;;;;;;47.13;24.50;;;;;;;;;;5091784;28;20048;-72
2022/10/29 11:07:01;;;;;;;42.97;22.13;;;;;;;;;;5093248;28;20048;-75
2022/10/29 11:09:35;;;;;;;41.38;22.05;;;;;;;;;;5091763;28;20048;-75
2022/10/29 11:12:20;;;;;;;50.28;22.98;;;;;;;;;;5092906;28;20055;-75
2022/10/29 11:14:58;;;;;;;39.85;21.38;;;;;;;;;;5091529;28;20083;-76
2022/10/29 11:17:26;;;;;;;42.28;20.83;;;;;;;;;;5093346;28;20403;-74
2022/10/29 11:19:55;;;;;;;41.83;21.25;;;;;;;;;;5092937;28;20056;-75
2022/10/29 11:22:26;;;;;;;42.47;20.75;;;;;;;;;;5092788;28;20052;-79
2022/10/29 11:24:57;;;;;;;35.45;19.45;;;;;;;;;;5092825;28;20054;-76
2022/10/29 11:27:34;;;;;;;37.63;19.45;;;;;;;;;;5091570;28;20143;-79
2022/10/29 11:30:09;;;;;;;42.60;19.60;;;;;;;;;;5093108;28;20055;-77
2022/10/29 11:32:44;;;;;;;37.05;17.80;;;;;;;;;;5093176;28;20419;-67
2022/10/29 11:35:11;;;;;;;34.75;16.70;;;;;;;;;;5091642;28;20204;-73
2022/10/29 11:37:40;;;;;;;36.78;17.02;;;;;;;;;;5092216;28;20044;-70
2022/10/29 11:40:14;;;;;;;36.90;17.23;;;;;;;;;;5092836;28;20434;-75
2022/10/29 11:42:40;;;;;;;35.72;16.67;;;;;;;;;;5092768;28;20048;-75
2022/10/29 11:45:06;;;;;;;;;;;;;;;;;;5092795;28;20048;-74
2022/10/29 11:47:44;;;;;;;36.75;15.80;;;;;;;;;;5091146;28;19946;-76
2022/10/29 11:50:17;;;;;;;35.05;16.23;;;;;;;;;;5092271;28;20051;-70
2022/10/29 11:52:52;;;;;;;34.03;16.50;;;;;;;;;;5091872;28;20087;-72
2022/10/29 11:55:37;;;;;;;33.22;15.60;;;;;;;;;;5090104;28;20044;-73
2022/10/29 11:58:17;;;;;;;36.63;15.30;;;;;;;;;;5092041;28;20052;-72
2022/10/29 12:00:49;;;;;;;30.23;15.77;;;;;;;;;;5092486;28;20044;-72
2022/10/29 12:03:18;;;;;;;32.70;15.82;;;;;;;;;;5092047;28;20484;-76
2022/10/29 12:05:44;;;;;;;34.90;15.68;;;;;;;;;;5092139;28;20044;-72
2022/10/29 12:08:29;;;;;;;32.05;15.77;;;;;;;;;;5092244;28;20528;-71
2022/10/29 12:11:04;;;;;;;33.22;16.38;;;;;;;;;;5091892;28;20048;-70
2022/10/29 12:13:42;;;;;;;30.38;14.68;;;;;;;;;;5092490;28;20044;-75
2022/10/29 12:16:08;;;;;;;39.10;15.77;;;;;;;;;;5092153;28;20413;-73
2022/10/29 12:18:48;;;;;;;34.15;14.52;;;;;;;;;;5092495;28;20442;-74
2022/10/29 12:21:17;;;;;;;37.72;14.88;;;;;;;;;;5128385;28;20487;-74
2022/10/29 12:23:56;;;;;;;34.75;15.25;;;;;;;;;;5103248;28;20071;-72
2022/10/29 12:26:37;;;;;;;29.92;14.93;;;;;;;;;;5097562;28;20040;-73
2022/10/29 12:29:25;;;;;;;40.13;15.48;;;;;;;;;;5093174;28;20077;-73
2022/10/29 12:31:58;;;;;;;40.90;16.15;;;;;;;;;;5092451;28;20462;-72
2022/10/29 12:34:30;;;;;;;54.60;18.10;;;;;;;;;;5092500;28;20073;-73
2022/10/29 12:37:02;;;;;;;40.95;16.27;;;;;;;;;;5092209;28;20040;-76
2022/10/29 12:39:35;;;;;;;34.92;14.82;;;;;;;;;;5092361;28;20059;-72
2022/10/29 12:42:02;;;;;;;34.28;15.07;;;;;;;;;;5092718;28;20084;-76
2022/10/29 12:44:40;;;;;;;30.63;15.50;;;;;;;;;;5091761;28;20492;-73
2022/10/29 12:47:07;;;;;;;37.63;15.98;;;;;;;;;;5093133;28;20072;-77
2022/10/29 12:49:51;;;;;;;39.85;16.70;;;;;;;;;;5091861;28;20097;-75
2022/10/29 12:52:32;;;;;;;38.65;17.70;;;;;;;;;;5091881;28;20048;-73
2022/10/29 12:54:59;;;;;;;43.30;16.90;;;;;;;;;;5092263;28;20118;-77
2022/10/29 12:57:33;;;;;;;34.70;16.30;;;;;;;;;;5092677;28;20074;-76
2022/10/29 13:00:22;;;;;;;35.10;16.10;;;;;;;;;;5091394;28;20472;-78
2022/10/29 13:02:50;;;;;;;36.63;16.45;;;;;;;;;;5091898;28;20071;-83
2022/10/29 13:05:37;;;;;;;36.42;15.85;;;;;;;;;;5092454;28;20117;-79
2022/10/29 13:08:03;;;;;;;39.77;16.37;;;;;;;;;;5096034;28;20059;-78
2022/10/29 13:10:32;;;;;;;29.88;14.90;;;;;;;;;;5095845;28;20086;-77
2022/10/29 13:12:58;;;;;;;30.92;14.68;;;;;;;;;;5094979;28;20493;-77
2022/10/29 13:15:27;;;;;;;34.15;14.13;;;;;;;;;;5095210;28;20061;-86
2022/10/29 13:17:55;;;;;;;31.05;15.35;;;;;;;;;;5077378;28;20457;-80
2022/10/29 13:20:47;;;;;;;35.15;14.90;;;;;;;;;;5095147;28;20087;-77
2022/10/29 13:23:33;;;;;;;34.78;15.10;;;;;;;;;;5092659;28;20052;-77
2022/10/29 13:26:01;;;;;;;31.33;14.40;;;;;;;;;;5095593;28;20052;-77
2022/10/29 13:28:27;;;;;;;35.90;15.27;;;;;;;;;;5094828;28;20051;-76
2022/10/29 13:30:59;;;;;;;34.75;14.38;;;;;;;;;;5094710;28;20040;-77
2022/10/29 13:33:28;;;;;;;31.23;13.98;;;;;;;;;;5094671;28;20542;-76
2022/10/29 13:35:54;;;;;;;31.63;14.02;;;;;;;;;;5094422;28;20127;-76
2022/10/29 13:38:39;;;;;;;32.90;14.15;;;;;;;;;;5094405;28;20097;-77
2022/10/29 13:41:16;;;;;;;31.30;13.80;;;;;;;;;;5094847;28;20495;-81
2022/10/29 13:43:59;;;;;;;36.47;14.40;;;;;;;;;;5094819;28;20040;-76
2022/10/29 13:46:25;;;;;;;30.98;13.38;;;;;;;;;;5093216;28;20047;-76
2022/10/29 13:48:52;;;;;;;30.10;13.50;;;;;;;;;;5094810;28;20048;-74
2022/10/29 13:51:22;;;;;;;29.70;13.63;;;;;;;;;;5094404;28;20051;-73
2022/10/29 13:53:54;;;;;;;25.40;12.75;;;;;;;;;;5094292;28;20510;-80
2022/10/29 13:56:24;;;;;;;30.30;13.43;;;;;;;;;;5094082;28;20079;-80
2022/10/29 13:58:52;;;;;;;32.28;13.70;;;;;;;;;;5094861;28;20098;-70
2022/10/29 14:01:19;;;;;;;28.00;12.93;;;;;;;;;;5094289;28;20048;-74
2022/10/29 14:04:05;;;;;;;31.13;14.10;;;;;;;;;;5094676;28;20345;-73
2022/10/29 14:06:33;;;;;;;34.17;14.85;;;;;;;;;;5095176;28;20075;-72
2022/10/29 14:09:18;;;;;;;27.52;14.52;;;;;;;;;;5094914;28;20052;-77
2022/10/29 14:11:47;;;;;;;34.55;13.60;;;;;;;;;;5097167;28;20080;-81
2022/10/29 14:14:32;;;;;;;31.88;15.38;;;;;;;;;;5097837;28;20044;-78
2022/10/29 14:17:12;;;;;;;35.22;15.75;;;;;;;;;;5099632;28;20047;-77
2022/10/29 14:19:42;;;;;;;32.15;14.70;;;;;;;;;;5117877;28;20062;-75
2022/10/29 14:22:27;;;;;;;38.45;15.95;;;;;;;;;;5110148;28;20162;-76
2022/10/29 14:24:53;;;;;;;35.78;14.90;;;;;;;;;;5095692;28;20055;-77
2022/10/29 14:27:19;;;;;;;;;;;;;;;;;;5104016;28;20103;-86
2022/10/29 14:29:45;;;;;;;31.13;15.85;;;;;;;;;;5076227;28;19963;-84
2022/10/29 14:32:18;;;;;;;32.15;15.27;;;;;;;;;;5094252;28;20190;-79
2022/10/29 14:34:47;;;;;;;32.72;14.73;;;;;;;;;;5093920;28;20479;-89